sensor_id;sensor_type;location;lat;lon;timestamp;P1;durP1;ratioP1;P2;durP2;ratioP2
57635;SDS011;43465;50.728;4.160;2022-07-29T00:02:10;5.20;;;1.88;;
57635;SDS011;43465;50.728;4.160;2022-07-29T00:04:36;3.35;;;1.70;;
57635;SDS011;43465;50.728;4.160;2022-07-29T00:07:02;5.43;;;2.00;;
57635;SDS011;43465;50.728;4.160;2022-07-29T00:09:29;4.32;;;1.80;;
57635;SDS011;43465;50.728;4.160;2022-07-29T00:11:56;3.28;;;1.70;;
57635;SDS011;43465;50.728;4.160;2022-07-29T00:14:24;5.93;;;2.05;;
57635;SDS011;43465;50.728;4.160;2022-07-29T00:16:50;6.25;;;1.80;;
57635;SDS011;43465;50.728;4.160;2022-07-29T00:19:16;5.53;;;1.75;;
57635;SDS011;43465;50.728;4.160;2022-07-29T00:21:41;2.35;;;1.80;;
57635;SDS011;43465;50.728;4.160;2022-07-29T00:24:07;3.92;;;1.77;;
57635;SDS011;43465;50.728;4.160;2022-07-29T00:26:33;2.92;;;1.95;;
57635;SDS011;43465;50.728;4.160;2022-07-29T00:28:59;2.30;;;1.90;;
57635;SDS011;43465;50.728;4.160;2022-07-29T00:31:26;3.67;;;1.65;;
57635;SDS011;43465;50.728;4.160;2022-07-29T00:33:52;3.83;;;1.92;;
57635;SDS011;43465;50.728;4.160;2022-07-29T00:36:21;4.00;;;1.67;;
57635;SDS011;43465;50.728;4.160;2022-07-29T00:38:47;3.70;;;1.73;;
57635;SDS011;43465;50.728;4.160;2022-07-29T00:41:13;6.70;;;2.03;;
57635;SDS011;43465;50.728;4.160;2022-07-29T00:43:39;9.40;;;2.10;;
57635;SDS011;43465;50.728;4.160;2022-07-29T00:46:05;3.97;;;1.73;;
57635;SDS011;43465;50.728;4.160;2022-07-29T00:48:31;4.88;;;1.98;;
57635;SDS011;43465;50.728;4.160;2022-07-29T00:50:57;2.60;;;1.85;;
57635;SDS011;43465;50.728;4.160;2022-07-29T00:53:25;2.90;;;1.80;;
57635;SDS011;43465;50.728;4.160;2022-07-29T00:55:51;5.93;;;2.10;;
57635;SDS011;43465;50.728;4.160;2022-07-29T00:58:20;5.47;;;2.20;;
57635;SDS011;43465;50.728;4.160;2022-07-29T01:00:46;5.95;;;2.00;;
57635;SDS011;43465;50.728;4.160;2022-07-29T01:03:12;6.43;;;2.53;;
57635;SDS011;43465;50.728;4.160;2022-07-29T01:05:38;3.83;;;2.08;;
57635;SDS011;43465;50.728;4.160;2022-07-29T01:08:06;4.45;;;2.22;;
57635;SDS011;43465;50.728;4.160;2022-07-29T01:10:32;3.60;;;1.95;;
57635;SDS011;43465;50.728;4.160;2022-07-29T01:12:58;5.60;;;2.50;;
57635;SDS011;43465;50.728;4.160;2022-07-29T01:15:26;4.15;;;2.40;;
57635;SDS011;43465;50.728;4.160;2022-07-29T01:20:30;3.63;;;2.05;;
57635;SDS011;43465;50.728;4.160;2022-07-29T01:23:26;3.50;;;1.90;;
57635;SDS011;43465;50.728;4.160;2022-07-29T01:27:07;4.95;;;1.90;;
57635;SDS011;43465;50.728;4.160;2022-07-29T01:34:21;6.35;;;2.30;;
57635;SDS011;43465;50.728;4.160;2022-07-29T01:36:57;6.93;;;1.90;;
57635;SDS011;43465;50.728;4.160;2022-07-29T01:39:40;5.43;;;2.13;;
57635;SDS011;43465;50.728;4.160;2022-07-29T01:42:16;5.78;;;2.10;;
57635;SDS011;43465;50.728;4.160;2022-07-29T01:44:59;6.68;;;2.30;;
57635;SDS011;43465;50.728;4.160;2022-07-29T01:47:38;3.58;;;2.10;;
57635;SDS011;43465;50.728;4.160;2022-07-29T01:50:08;3.50;;;2.85;;
57635;SDS011;43465;50.728;4.160;2022-07-29T01:52:49;9.57;;;2.20;;
57635;SDS011;43465;50.728;4.160;2022-07-29T01:55:22;6.23;;;2.10;;
57635;SDS011;43465;50.728;4.160;2022-07-29T01:58:00;5.82;;;1.98;;
57635;SDS011;43465;50.728;4.160;2022-07-29T02:00:28;5.78;;;2.20;;
57635;SDS011;43465;50.728;4.160;2022-07-29T02:02:56;5.18;;;2.20;;
57635;SDS011;43465;50.728;4.160;2022-07-29T02:05:25;3.33;;;2.10;;
57635;SDS011;43465;50.728;4.160;2022-07-29T02:07:53;5.25;;;2.38;;
57635;SDS011;43465;50.728;4.160;2022-07-29T02:10:23;2.97;;;2.20;;
57635;SDS011;43465;50.728;4.160;2022-07-29T02:12:55;6.10;;;2.35;;
57635;SDS011;43465;50.728;4.160;2022-07-29T02:15:22;8.15;;;2.00;;
57635;SDS011;43465;50.728;4.160;2022-07-29T02:18:00;4.15;;;2.38;;
57635;SDS011;43465;50.728;4.160;2022-07-29T02:20:31;2.70;;;2.30;;
57635;SDS011;43465;50.728;4.160;2022-07-29T02:22:58;3.50;;;2.00;;
57635;SDS011;43465;50.728;4.160;2022-07-29T02:25:25;6.72;;;2.28;;
57635;SDS011;43465;50.728;4.160;2022-07-29T02:27:51;5.80;;;2.47;;
57635;SDS011;43465;50.728;4.160;2022-07-29T02:30:19;5.60;;;2.40;;
57635;SDS011;43465;50.728;4.160;2022-07-29T02:32:47;4.75;;;2.00;;
57635;SDS011;43465;50.728;4.160;2022-07-29T02:35:14;4.38;;;2.05;;
57635;SDS011;43465;50.728;4.160;2022-07-29T02:37:42;3.42;;;2.20;;
57635;SDS011;43465;50.728;4.160;2022-07-29T02:40:10;3.60;;;2.20;;
57635;SDS011;43465;50.728;4.160;2022-07-29T02:42:39;3.67;;;2.10;;
57635;SDS011;43465;50.728;4.160;2022-07-29T02:45:07;4.35;;;2.38;;
57635;SDS011;43465;50.728;4.160;2022-07-29T02:47:35;4.82;;;2.10;;
57635;SDS011;43465;50.728;4.160;2022-07-29T02:50:15;4.88;;;2.10;;
57635;SDS011;43465;50.728;4.160;2022-07-29T02:52:56;2.92;;;1.85;;
57635;SDS011;43465;50.728;4.160;2022-07-29T02:55:31;5.45;;;2.03;;
57635;SDS011;43465;50.728;4.160;2022-07-29T02:58:27;6.32;;;1.92;;
57635;SDS011;43465;50.728;4.160;2022-07-29T03:00:56;6.72;;;1.98;;
57635;SDS011;43465;50.728;4.160;2022-07-29T03:03:25;3.30;;;1.90;;
57635;SDS011;43465;50.728;4.160;2022-07-29T03:05:56;3.97;;;2.22;;
57635;SDS011;43465;50.728;4.160;2022-07-29T03:08:24;4.90;;;2.30;;
57635;SDS011;43465;50.728;4.160;2022-07-29T03:10:52;3.67;;;2.03;;
57635;SDS011;43465;50.728;4.160;2022-07-29T03:13:19;3.65;;;1.88;;
57635;SDS011;43465;50.728;4.160;2022-07-29T03:15:45;6.90;;;2.15;;
57635;SDS011;43465;50.728;4.160;2022-07-29T03:18:12;3.63;;;2.42;;
57635;SDS011;43465;50.728;4.160;2022-07-29T03:20:39;6.75;;;2.80;;
57635;SDS011;43465;50.728;4.160;2022-07-29T03:23:05;4.57;;;2.38;;
57635;SDS011;43465;50.728;4.160;2022-07-29T03:25:31;3.95;;;2.28;;
57635;SDS011;43465;50.728;4.160;2022-07-29T03:27:56;4.10;;;2.45;;
57635;SDS011;43465;50.728;4.160;2022-07-29T03:30:22;5.47;;;2.47;;
57635;SDS011;43465;50.728;4.160;2022-07-29T03:32:51;4.25;;;2.40;;
57635;SDS011;43465;50.728;4.160;2022-07-29T03:35:17;4.93;;;2.10;;
57635;SDS011;43465;50.728;4.160;2022-07-29T03:37:44;5.07;;;2.10;;
57635;SDS011;43465;50.728;4.160;2022-07-29T03:40:11;4.30;;;2.53;;
57635;SDS011;43465;50.728;4.160;2022-07-29T03:42:42;3.87;;;2.47;;
57635;SDS011;43465;50.728;4.160;2022-07-29T03:45:10;5.38;;;2.40;;
57635;SDS011;43465;50.728;4.160;2022-07-29T03:47:39;3.35;;;2.25;;
57635;SDS011;43465;50.728;4.160;2022-07-29T03:50:09;4.43;;;2.45;;
57635;SDS011;43465;50.728;4.160;2022-07-29T03:52:36;4.93;;;2.35;;
57635;SDS011;43465;50.728;4.160;2022-07-29T03:55:02;5.13;;;2.70;;
57635;SDS011;43465;50.728;4.160;2022-07-29T03:57:29;4.05;;;2.10;;
57635;SDS011;43465;50.728;4.160;2022-07-29T03:59:56;3.17;;;2.50;;
57635;SDS011;43465;50.728;4.160;2022-07-29T04:02:22;4.82;;;2.53;;
57635;SDS011;43465;50.728;4.160;2022-07-29T04:04:50;7.55;;;2.40;;
57635;SDS011;43465;50.728;4.160;2022-07-29T04:07:16;4.47;;;2.28;;
57635;SDS011;43465;50.728;4.160;2022-07-29T04:09:42;5.90;;;2.83;;
57635;SDS011;43465;50.728;4.160;2022-07-29T04:12:08;4.97;;;2.45;;
57635;SDS011;43465;50.728;4.160;2022-07-29T04:14:34;3.13;;;2.33;;
57635;SDS011;43465;50.728;4.160;2022-07-29T04:17:00;5.47;;;3.00;;
57635;SDS011;43465;50.728;4.160;2022-07-29T04:19:26;5.28;;;2.88;;
57635;SDS011;43465;50.728;4.160;2022-07-29T04:21:52;4.85;;;2.70;;
57635;SDS011;43465;50.728;4.160;2022-07-29T04:24:18;4.80;;;2.67;;
57635;SDS011;43465;50.728;4.160;2022-07-29T04:26:45;5.72;;;2.70;;
57635;SDS011;43465;50.728;4.160;2022-07-29T04:29:11;4.82;;;2.97;;
57635;SDS011;43465;50.728;4.160;2022-07-29T04:31:37;4.32;;;2.60;;
57635;SDS011;43465;50.728;4.160;2022-07-29T04:34:02;4.38;;;2.67;;
57635;SDS011;43465;50.728;4.160;2022-07-29T04:36:28;5.28;;;2.80;;
57635;SDS011;43465;50.728;4.160;2022-07-29T04:38:54;7.93;;;2.85;;
57635;SDS011;43465;50.728;4.160;2022-07-29T04:41:19;4.57;;;2.95;;
57635;SDS011;43465;50.728;4.160;2022-07-29T04:43:45;7.10;;;2.90;;
57635;SDS011;43465;50.728;4.160;2022-07-29T04:46:11;5.47;;;2.88;;
57635;SDS011;43465;50.728;4.160;2022-07-29T04:48:36;3.63;;;2.67;;
57635;SDS011;43465;50.728;4.160;2022-07-29T04:51:02;4.82;;;2.95;;
57635;SDS011;43465;50.728;4.160;2022-07-29T04:53:28;4.93;;;3.22;;
57635;SDS011;43465;50.728;4.160;2022-07-29T04:55:53;5.55;;;3.00;;
57635;SDS011;43465;50.728;4.160;2022-07-29T04:58:19;6.70;;;3.03;;
57635;SDS011;43465;50.728;4.160;2022-07-29T05:00:45;4.82;;;2.97;;
57635;SDS011;43465;50.728;4.160;2022-07-29T05:03:11;3.72;;;2.50;;
57635;SDS011;43465;50.728;4.160;2022-07-29T05:05:36;5.97;;;3.10;;
57635;SDS011;43465;50.728;4.160;2022-07-29T05:08:02;8.68;;;2.97;;
57635;SDS011;43465;50.728;4.160;2022-07-29T05:10:28;3.47;;;2.95;;
57635;SDS011;43465;50.728;4.160;2022-07-29T05:12:54;4.65;;;2.85;;
57635;SDS011;43465;50.728;4.160;2022-07-29T05:15:19;5.13;;;2.97;;
57635;SDS011;43465;50.728;4.160;2022-07-29T05:17:45;7.25;;;3.17;;
57635;SDS011;43465;50.728;4.160;2022-07-29T05:20:10;3.60;;;2.65;;
57635;SDS011;43465;50.728;4.160;2022-07-29T05:22:36;7.32;;;3.28;;
57635;SDS011;43465;50.728;4.160;2022-07-29T05:25:02;4.50;;;3.20;;
57635;SDS011;43465;50.728;4.160;2022-07-29T05:27:28;6.32;;;3.20;;
57635;SDS011;43465;50.728;4.160;2022-07-29T05:29:54;6.13;;;3.05;;
57635;SDS011;43465;50.728;4.160;2022-07-29T05:32:19;3.83;;;3.30;;
57635;SDS011;43465;50.728;4.160;2022-07-29T05:34:45;6.78;;;3.33;;
57635;SDS011;43465;50.728;4.160;2022-07-29T05:37:11;3.83;;;3.10;;
57635;SDS011;43465;50.728;4.160;2022-07-29T05:39:38;6.32;;;3.33;;
57635;SDS011;43465;50.728;4.160;2022-07-29T05:42:07;4.47;;;3.03;;
57635;SDS011;43465;50.728;4.160;2022-07-29T05:44:37;5.63;;;3.20;;
57635;SDS011;43465;50.728;4.160;2022-07-29T05:47:03;7.05;;;3.55;;
57635;SDS011;43465;50.728;4.160;2022-07-29T05:49:29;8.13;;;3.50;;
57635;SDS011;43465;50.728;4.160;2022-07-29T05:51:54;4.78;;;3.45;;
57635;SDS011;43465;50.728;4.160;2022-07-29T05:54:20;6.88;;;2.88;;
57635;SDS011;43465;50.728;4.160;2022-07-29T05:56:45;3.55;;;3.03;;
57635;SDS011;43465;50.728;4.160;2022-07-29T05:59:11;6.32;;;3.65;;
57635;SDS011;43465;50.728;4.160;2022-07-29T06:01:37;6.03;;;3.80;;
57635;SDS011;43465;50.728;4.160;2022-07-29T06:04:04;4.88;;;3.58;;
57635;SDS011;43465;50.728;4.160;2022-07-29T06:06:31;3.30;;;3.00;;
57635;SDS011;43465;50.728;4.160;2022-07-29T06:08:57;4.10;;;3.67;;
57635;SDS011;43465;50.728;4.160;2022-07-29T06:11:23;6.53;;;3.60;;
57635;SDS011;43465;50.728;4.160;2022-07-29T06:13:48;6.07;;;3.75;;
57635;SDS011;43465;50.728;4.160;2022-07-29T06:16:14;6.20;;;3.78;;
57635;SDS011;43465;50.728;4.160;2022-07-29T06:18:40;7.25;;;3.90;;
57635;SDS011;43465;50.728;4.160;2022-07-29T06:21:08;6.72;;;3.83;;
57635;SDS011;43465;50.728;4.160;2022-07-29T06:23:35;5.97;;;3.63;;
57635;SDS011;43465;50.728;4.160;2022-07-29T06:26:02;6.68;;;3.53;;
57635;SDS011;43465;50.728;4.160;2022-07-29T06:28:28;5.68;;;3.42;;
57635;SDS011;43465;50.728;4.160;2022-07-29T06:30:53;8.75;;;4.30;;
57635;SDS011;43465;50.728;4.160;2022-07-29T06:33:19;6.75;;;3.95;;
57635;SDS011;43465;50.728;4.160;2022-07-29T06:35:45;6.57;;;3.85;;
57635;SDS011;43465;50.728;4.160;2022-07-29T06:38:12;9.05;;;4.28;;
57635;SDS011;43465;50.728;4.160;2022-07-29T06:40:45;5.97;;;4.10;;
57635;SDS011;43465;50.728;4.160;2022-07-29T06:43:31;6.20;;;4.10;;
57635;SDS011;43465;50.728;4.160;2022-07-29T06:46:01;8.43;;;4.45;;
57635;SDS011;43465;50.728;4.160;2022-07-29T06:48:28;9.93;;;5.13;;
57635;SDS011;43465;50.728;4.160;2022-07-29T06:50:54;8.13;;;4.85;;
57635;SDS011;43465;50.728;4.160;2022-07-29T06:53:20;5.18;;;3.80;;
57635;SDS011;43465;50.728;4.160;2022-07-29T06:55:45;8.02;;;4.60;;
57635;SDS011;43465;50.728;4.160;2022-07-29T06:58:11;8.75;;;4.47;;
57635;SDS011;43465;50.728;4.160;2022-07-29T07:00:39;10.20;;;4.78;;
57635;SDS011;43465;50.728;4.160;2022-07-29T07:03:04;5.28;;;4.50;;
57635;SDS011;43465;50.728;4.160;2022-07-29T07:05:30;7.15;;;4.45;;
57635;SDS011;43465;50.728;4.160;2022-07-29T07:07:56;6.05;;;4.03;;
57635;SDS011;43465;50.728;4.160;2022-07-29T07:10:21;6.38;;;4.20;;
57635;SDS011;43465;50.728;4.160;2022-07-29T07:12:47;8.48;;;4.72;;
57635;SDS011;43465;50.728;4.160;2022-07-29T07:15:12;6.25;;;4.30;;
57635;SDS011;43465;50.728;4.160;2022-07-29T07:17:38;6.70;;;4.65;;
57635;SDS011;43465;50.728;4.160;2022-07-29T07:20:04;6.00;;;4.18;;
57635;SDS011;43465;50.728;4.160;2022-07-29T07:22:31;6.57;;;4.78;;
57635;SDS011;43465;50.728;4.160;2022-07-29T07:24:56;10.05;;;5.05;;
57635;SDS011;43465;50.728;4.160;2022-07-29T07:27:22;9.13;;;4.20;;
57635;SDS011;43465;50.728;4.160;2022-07-29T07:29:48;5.65;;;4.43;;
57635;SDS011;43465;50.728;4.160;2022-07-29T07:32:13;12.95;;;4.85;;
57635;SDS011;43465;50.728;4.160;2022-07-29T07:34:41;5.30;;;4.22;;
57635;SDS011;43465;50.728;4.160;2022-07-29T07:37:08;8.43;;;4.28;;
57635;SDS011;43465;50.728;4.160;2022-07-29T07:39:33;9.45;;;4.78;;
57635;SDS011;43465;50.728;4.160;2022-07-29T07:41:59;5.50;;;4.43;;
57635;SDS011;43465;50.728;4.160;2022-07-29T07:44:25;6.88;;;4.68;;
57635;SDS011;43465;50.728;4.160;2022-07-29T07:46:51;6.97;;;4.80;;
57635;SDS011;43465;50.728;4.160;2022-07-29T07:49:17;7.72;;;4.45;;
57635;SDS011;43465;50.728;4.160;2022-07-29T07:51:42;7.32;;;4.18;;
57635;SDS011;43465;50.728;4.160;2022-07-29T07:54:08;9.45;;;4.97;;
57635;SDS011;43465;50.728;4.160;2022-07-29T07:56:34;10.48;;;4.60;;
57635;SDS011;43465;50.728;4.160;2022-07-29T07:58:59;5.80;;;4.18;;
57635;SDS011;43465;50.728;4.160;2022-07-29T08:01:25;5.80;;;4.50;;
57635;SDS011;43465;50.728;4.160;2022-07-29T08:03:50;10.48;;;4.20;;
57635;SDS011;43465;50.728;4.160;2022-07-29T08:06:16;7.75;;;4.18;;
57635;SDS011;43465;50.728;4.160;2022-07-29T08:08:42;8.25;;;3.90;;
57635;SDS011;43465;50.728;4.160;2022-07-29T08:11:07;5.93;;;4.18;;
57635;SDS011;43465;50.728;4.160;2022-07-29T08:13:33;3.78;;;3.20;;
57635;SDS011;43465;50.728;4.160;2022-07-29T08:15:59;6.30;;;3.50;;
57635;SDS011;43465;50.728;4.160;2022-07-29T08:18:36;4.50;;;3.00;;
57635;SDS011;43465;50.728;4.160;2022-07-29T08:21:01;5.70;;;3.50;;
57635;SDS011;43465;50.728;4.160;2022-07-29T08:23:27;4.25;;;3.90;;
57635;SDS011;43465;50.728;4.160;2022-07-29T08:26:00;5.53;;;3.75;;
57635;SDS011;43465;50.728;4.160;2022-07-29T08:28:26;3.75;;;3.13;;
57635;SDS011;43465;50.728;4.160;2022-07-29T08:30:51;4.40;;;3.17;;
57635;SDS011;43465;50.728;4.160;2022-07-29T08:33:17;3.95;;;2.88;;
57635;SDS011;43465;50.728;4.160;2022-07-29T08:35:43;3.88;;;2.90;;
57635;SDS011;43465;50.728;4.160;2022-07-29T08:38:09;6.78;;;3.35;;
57635;SDS011;43465;50.728;4.160;2022-07-29T08:40:34;9.10;;;3.47;;
57635;SDS011;43465;50.728;4.160;2022-07-29T08:43:04;4.40;;;3.22;;
57635;SDS011;43465;50.728;4.160;2022-07-29T08:45:43;5.68;;;3.30;;
57635;SDS011;43465;50.728;4.160;2022-07-29T08:48:13;7.75;;;3.22;;
57635;SDS011;43465;50.728;4.160;2022-07-29T08:50:41;6.32;;;2.70;;
57635;SDS011;43465;50.728;4.160;2022-07-29T08:53:12;4.88;;;2.83;;
57635;SDS011;43465;50.728;4.160;2022-07-29T08:55:46;3.92;;;2.60;;
57635;SDS011;43465;50.728;4.160;2022-07-29T08:58:14;4.22;;;2.63;;
57635;SDS011;43465;50.728;4.160;2022-07-29T09:00:41;4.05;;;2.40;;
57635;SDS011;43465;50.728;4.160;2022-07-29T09:03:09;3.03;;;2.22;;
57635;SDS011;43465;50.728;4.160;2022-07-29T09:05:42;3.63;;;2.33;;
57635;SDS011;43465;50.728;4.160;2022-07-29T09:08:10;2.97;;;2.20;;
57635;SDS011;43465;50.728;4.160;2022-07-29T09:10:36;3.78;;;2.30;;
57635;SDS011;43465;50.728;4.160;2022-07-29T09:13:02;2.40;;;2.20;;
57635;SDS011;43465;50.728;4.160;2022-07-29T09:15:28;5.05;;;2.47;;
57635;SDS011;43465;50.728;4.160;2022-07-29T09:17:54;4.82;;;2.08;;
57635;SDS011;43465;50.728;4.160;2022-07-29T09:20:21;3.15;;;2.00;;
57635;SDS011;43465;50.728;4.160;2022-07-29T09:22:48;5.30;;;1.92;;
57635;SDS011;43465;50.728;4.160;2022-07-29T09:25:34;3.75;;;2.05;;
57635;SDS011;43465;50.728;4.160;2022-07-29T09:30:33;5.80;;;1.88;;
57635;SDS011;43465;50.728;4.160;2022-07-29T09:33:00;4.40;;;2.13;;
57635;SDS011;43465;50.728;4.160;2022-07-29T09:35:27;3.72;;;2.10;;
57635;SDS011;43465;50.728;4.160;2022-07-29T09:37:54;4.28;;;1.92;;
57635;SDS011;43465;50.728;4.160;2022-07-29T09:40:20;4.60;;;2.13;;
57635;SDS011;43465;50.728;4.160;2022-07-29T09:42:48;3.85;;;2.30;;
57635;SDS011;43465;50.728;4.160;2022-07-29T09:45:27;4.25;;;2.22;;
57635;SDS011;43465;50.728;4.160;2022-07-29T09:48:00;2.78;;;2.10;;
57635;SDS011;43465;50.728;4.160;2022-07-29T09:50:42;6.15;;;2.60;;
57635;SDS011;43465;50.728;4.160;2022-07-29T09:53:09;5.90;;;2.30;;
57635;SDS011;43465;50.728;4.160;2022-07-29T09:55:48;4.65;;;2.40;;
57635;SDS011;43465;50.728;4.160;2022-07-29T09:58:24;7.97;;;2.30;;
57635;SDS011;43465;50.728;4.160;2022-07-29T10:00:50;5.82;;;2.78;;
57635;SDS011;43465;50.728;4.160;2022-07-29T10:03:17;3.47;;;2.42;;
57635;SDS011;43465;50.728;4.160;2022-07-29T10:05:43;5.57;;;2.90;;
57635;SDS011;43465;50.728;4.160;2022-07-29T10:08:10;3.13;;;2.70;;
57635;SDS011;43465;50.728;4.160;2022-07-29T10:10:41;7.68;;;2.80;;
57635;SDS011;43465;50.728;4.160;2022-07-29T10:13:08;6.45;;;2.65;;
57635;SDS011;43465;50.728;4.160;2022-07-29T10:15:37;4.15;;;2.78;;
57635;SDS011;43465;50.728;4.160;2022-07-29T10:18:09;6.03;;;3.53;;
57635;SDS011;43465;50.728;4.160;2022-07-29T10:20:36;7.13;;;2.70;;
57635;SDS011;43465;50.728;4.160;2022-07-29T10:23:02;5.53;;;3.28;;
57635;SDS011;43465;50.728;4.160;2022-07-29T10:25:28;5.30;;;3.22;;
57635;SDS011;43465;50.728;4.160;2022-07-29T10:27:54;6.68;;;4.53;;
57635;SDS011;43465;50.728;4.160;2022-07-29T10:30:20;8.75;;;3.25;;
57635;SDS011;43465;50.728;4.160;2022-07-29T10:43:53;8.05;;;2.60;;
57635;SDS011;43465;50.728;4.160;2022-07-29T10:46:28;4.78;;;2.60;;
57635;SDS011;43465;50.728;4.160;2022-07-29T10:49:06;5.05;;;2.40;;
57635;SDS011;43465;50.728;4.160;2022-07-29T11:07:33;7.35;;;3.90;;
57635;SDS011;43465;50.728;4.160;2022-07-29T11:20:35;6.63;;;3.80;;
57635;SDS011;43465;50.728;4.160;2022-07-29T11:26:12;4.75;;;3.05;;
57635;SDS011;43465;50.728;4.160;2022-07-29T11:29:06;6.32;;;3.45;;
57635;SDS011;43465;50.728;4.160;2022-07-29T11:31:48;5.80;;;2.92;;
57635;SDS011;43465;50.728;4.160;2022-07-29T11:47:22;5.20;;;3.47;;
57635;SDS011;43465;50.728;4.160;2022-07-29T11:49:48;6.97;;;3.97;;
57635;SDS011;43465;50.728;4.160;2022-07-29T11:52:16;8.10;;;3.13;;
57635;SDS011;43465;50.728;4.160;2022-07-29T11:54:42;7.22;;;3.55;;
57635;SDS011;43465;50.728;4.160;2022-07-29T11:57:08;6.50;;;3.05;;
57635;SDS011;43465;50.728;4.160;2022-07-29T11:59:40;7.32;;;2.80;;
57635;SDS011;43465;50.728;4.160;2022-07-29T12:02:08;10.15;;;4.00;;
57635;SDS011;43465;50.728;4.160;2022-07-29T12:04:47;3.78;;;2.40;;
57635;SDS011;43465;50.728;4.160;2022-07-29T12:07:33;7.38;;;2.88;;
57635;SDS011;43465;50.728;4.160;2022-07-29T12:10:00;7.80;;;2.30;;
57635;SDS011;43465;50.728;4.160;2022-07-29T12:12:26;5.20;;;2.45;;
57635;SDS011;43465;50.728;4.160;2022-07-29T12:14:52;4.57;;;2.30;;
57635;SDS011;43465;50.728;4.160;2022-07-29T12:17:30;7.93;;;2.80;;
57635;SDS011;43465;50.728;4.160;2022-07-29T12:19:57;10.63;;;2.28;;
57635;SDS011;43465;50.728;4.160;2022-07-29T12:22:29;4.07;;;2.20;;
57635;SDS011;43465;50.728;4.160;2022-07-29T12:25:00;4.68;;;2.22;;
57635;SDS011;43465;50.728;4.160;2022-07-29T12:27:28;4.93;;;2.58;;
57635;SDS011;43465;50.728;4.160;2022-07-29T12:30:00;6.13;;;2.80;;
57635;SDS011;43465;50.728;4.160;2022-07-29T12:35:11;5.30;;;3.25;;
57635;SDS011;43465;50.728;4.160;2022-07-29T12:37:38;6.72;;;3.00;;
57635;SDS011;43465;50.728;4.160;2022-07-29T12:40:06;5.10;;;2.35;;
57635;SDS011;43465;50.728;4.160;2022-07-29T12:42:34;8.13;;;2.50;;
57635;SDS011;43465;50.728;4.160;2022-07-29T12:45:00;6.30;;;2.47;;
57635;SDS011;43465;50.728;4.160;2022-07-29T12:47:26;6.32;;;2.75;;
57635;SDS011;43465;50.728;4.160;2022-07-29T12:50:07;6.30;;;2.65;;
57635;SDS011;43465;50.728;4.160;2022-07-29T12:52:37;4.68;;;2.30;;
57635;SDS011;43465;50.728;4.160;2022-07-29T12:55:03;4.50;;;2.30;;
57635;SDS011;43465;50.728;4.160;2022-07-29T12:57:30;4.20;;;2.78;;
57635;SDS011;43465;50.728;4.160;2022-07-29T13:02:39;7.03;;;2.28;;
57635;SDS011;43465;50.728;4.160;2022-07-29T13:05:07;6.00;;;2.70;;
57635;SDS011;43465;50.728;4.160;2022-07-29T13:07:34;5.20;;;2.70;;
57635;SDS011;43465;50.728;4.160;2022-07-29T13:10:17;6.15;;;2.28;;
57635;SDS011;43465;50.728;4.160;2022-07-29T13:13:01;5.47;;;2.58;;
57635;SDS011;43465;50.728;4.160;2022-07-29T13:15:26;5.45;;;2.30;;
57635;SDS011;43465;50.728;4.160;2022-07-29T13:17:52;7.65;;;2.20;;
57635;SDS011;43465;50.728;4.160;2022-07-29T13:20:18;6.10;;;2.50;;
57635;SDS011;43465;50.728;4.160;2022-07-29T13:22:48;4.72;;;2.10;;
57635;SDS011;43465;50.728;4.160;2022-07-29T13:28:12;3.58;;;2.15;;
57635;SDS011;43465;50.728;4.160;2022-07-29T13:30:39;6.57;;;2.67;;
57635;SDS011;43465;50.728;4.160;2022-07-29T13:33:05;5.93;;;2.40;;
57635;SDS011;43465;50.728;4.160;2022-07-29T13:35:31;7.00;;;2.42;;
57635;SDS011;43465;50.728;4.160;2022-07-29T13:37:57;6.30;;;2.20;;
57635;SDS011;43465;50.728;4.160;2022-07-29T13:40:22;5.00;;;2.47;;
57635;SDS011;43465;50.728;4.160;2022-07-29T13:42:48;6.95;;;2.65;;
57635;SDS011;43465;50.728;4.160;2022-07-29T13:45:14;2.85;;;2.30;;
57635;SDS011;43465;50.728;4.160;2022-07-29T13:47:40;6.10;;;2.58;;
57635;SDS011;43465;50.728;4.160;2022-07-29T13:50:06;3.38;;;1.83;;
57635;SDS011;43465;50.728;4.160;2022-07-29T13:52:33;5.63;;;2.38;;
57635;SDS011;43465;50.728;4.160;2022-07-29T13:54:59;4.30;;;2.15;;
57635;SDS011;43465;50.728;4.160;2022-07-29T13:57:25;5.93;;;2.63;;
57635;SDS011;43465;50.728;4.160;2022-07-29T13:59:52;7.63;;;3.33;;
57635;SDS011;43465;50.728;4.160;2022-07-29T14:02:18;6.10;;;2.90;;
57635;SDS011;43465;50.728;4.160;2022-07-29T14:04:43;5.82;;;2.70;;
57635;SDS011;43465;50.728;4.160;2022-07-29T14:07:09;3.67;;;2.35;;
57635;SDS011;43465;50.728;4.160;2022-07-29T14:09:35;5.25;;;2.55;;
57635;SDS011;43465;50.728;4.160;2022-07-29T14:12:00;6.28;;;2.80;;
57635;SDS011;43465;50.728;4.160;2022-07-29T14:14:27;7.00;;;2.63;;
57635;SDS011;43465;50.728;4.160;2022-07-29T14:16:53;11.32;;;2.30;;
57635;SDS011;43465;50.728;4.160;2022-07-29T14:19:19;10.75;;;2.70;;
57635;SDS011;43465;50.728;4.160;2022-07-29T14:21:45;6.18;;;2.70;;
57635;SDS011;43465;50.728;4.160;2022-07-29T14:24:10;6.63;;;2.97;;
57635;SDS011;43465;50.728;4.160;2022-07-29T14:26:36;3.28;;;2.75;;
57635;SDS011;43465;50.728;4.160;2022-07-29T14:29:01;4.82;;;2.58;;
57635;SDS011;43465;50.728;4.160;2022-07-29T14:31:27;7.65;;;2.58;;
57635;SDS011;43465;50.728;4.160;2022-07-29T14:33:53;6.38;;;2.75;;
57635;SDS011;43465;50.728;4.160;2022-07-29T14:36:18;3.90;;;2.65;;
57635;SDS011;43465;50.728;4.160;2022-07-29T14:38:44;5.75;;;2.60;;
57635;SDS011;43465;50.728;4.160;2022-07-29T14:41:09;6.93;;;2.00;;
57635;SDS011;43465;50.728;4.160;2022-07-29T14:43:35;5.63;;;2.70;;
57635;SDS011;43465;50.728;4.160;2022-07-29T14:46:01;9.00;;;3.00;;
57635;SDS011;43465;50.728;4.160;2022-07-29T14:48:27;7.43;;;2.75;;
57635;SDS011;43465;50.728;4.160;2022-07-29T14:50:53;5.95;;;2.90;;
57635;SDS011;43465;50.728;4.160;2022-07-29T14:53:20;3.53;;;2.70;;
57635;SDS011;43465;50.728;4.160;2022-07-29T14:55:46;4.57;;;2.50;;
57635;SDS011;43465;50.728;4.160;2022-07-29T14:58:12;5.97;;;2.85;;
57635;SDS011;43465;50.728;4.160;2022-07-29T15:00:38;4.68;;;2.67;;
57635;SDS011;43465;50.728;4.160;2022-07-29T15:03:04;4.65;;;2.67;;
57635;SDS011;43465;50.728;4.160;2022-07-29T15:05:30;3.22;;;2.45;;
57635;SDS011;43465;50.728;4.160;2022-07-29T15:07:57;5.03;;;2.58;;
57635;SDS011;43465;50.728;4.160;2022-07-29T15:10:24;4.20;;;2.80;;
57635;SDS011;43465;50.728;4.160;2022-07-29T15:12:51;4.07;;;1.88;;
57635;SDS011;43465;50.728;4.160;2022-07-29T15:15:17;5.10;;;2.50;;
57635;SDS011;43465;50.728;4.160;2022-07-29T15:17:43;3.35;;;2.28;;
57635;SDS011;43465;50.728;4.160;2022-07-29T15:20:09;4.70;;;2.08;;
57635;SDS011;43465;50.728;4.160;2022-07-29T15:22:36;7.20;;;2.95;;
57635;SDS011;43465;50.728;4.160;2022-07-29T15:25:03;4.53;;;2.55;;
57635;SDS011;43465;50.728;4.160;2022-07-29T15:27:29;6.90;;;2.47;;
57635;SDS011;43465;50.728;4.160;2022-07-29T15:29:54;5.55;;;2.47;;
57635;SDS011;43465;50.728;4.160;2022-07-29T15:32:20;5.05;;;2.50;;
57635;SDS011;43465;50.728;4.160;2022-07-29T15:34:46;6.10;;;2.70;;
57635;SDS011;43465;50.728;4.160;2022-07-29T15:37:12;6.63;;;2.53;;
57635;SDS011;43465;50.728;4.160;2022-07-29T15:39:37;5.55;;;2.15;;
57635;SDS011;43465;50.728;4.160;2022-07-29T15:42:03;8.25;;;2.55;;
57635;SDS011;43465;50.728;4.160;2022-07-29T15:44:29;4.28;;;2.10;;
57635;SDS011;43465;50.728;4.160;2022-07-29T15:46:55;3.90;;;2.22;;
57635;SDS011;43465;50.728;4.160;2022-07-29T15:49:33;2.80;;;2.10;;
57635;SDS011;43465;50.728;4.160;2022-07-29T15:52:02;7.55;;;2.70;;
57635;SDS011;43465;50.728;4.160;2022-07-29T15:54:31;3.72;;;2.45;;
57635;SDS011;43465;50.728;4.160;2022-07-29T15:56:57;4.38;;;2.40;;
57635;SDS011;43465;50.728;4.160;2022-07-29T15:59:23;3.72;;;1.95;;
57635;SDS011;43465;50.728;4.160;2022-07-29T16:01:49;5.18;;;1.92;;
57635;SDS011;43465;50.728;4.160;2022-07-29T16:04:14;6.85;;;1.85;;
57635;SDS011;43465;50.728;4.160;2022-07-29T16:06:41;5.10;;;1.85;;